Itanhaem, Brazil
Current Conditions -  °F | °C
As of 10:00 AM on Sunday 21 Dec 2014 (Local Time) from SBSP Reporting Station
Clear Clear  
Wind Chill: 81°   Ceiling: Unl
Heat Index: 82°   Visibility: 6mi
Dew Point: 64°   Wind: 16mph
Humidity: 58%   Direction: 340°NNW
Pressure: 29.97"   Gusts: NA
Location:  24.18°S, 46.8°W
Report Text: SBSP 211200Z 34014KT CAVOK 27/18 Q1015
Loading
Personal Weather Stations






























Interactive Weather Map New forecast layout! Learn more

10-Day Weather Forecast

Advertisements
Track Severe Weather on mobile